createdAt,value
2022-10-04T05:43:03.420Z,3.90
2022-10-04T05:45:34.784Z,4.00
2022-10-04T05:48:13.938Z,4.10
2022-10-04T05:50:43.596Z,4.20
2022-10-04T05:53:28.062Z,4.30
2022-10-04T05:56:06.044Z,4.40
2022-10-04T05:58:52.907Z,4.50
2022-10-04T06:01:41.570Z,4.60
2022-10-04T06:04:34.549Z,4.70
2022-10-04T06:07:10.719Z,4.80
2022-10-04T06:09:55.198Z,4.90
2022-10-04T06:12:35.429Z,5.00
2022-10-04T06:15:27.289Z,5.10
2022-10-04T06:18:14.961Z,5.30
2022-10-04T06:21:11.241Z,5.40
2022-10-04T06:23:47.747Z,5.50
2022-10-04T06:26:25.234Z,5.70
2022-10-04T06:28:59.395Z,5.80
2022-10-04T06:31:57.523Z,5.80
2022-10-04T06:34:55.224Z,6.00
2022-10-04T06:37:52.517Z,6.20
2022-10-04T06:40:39.943Z,6.50
2022-10-04T06:43:36.456Z,6.90
2022-10-04T06:46:12.815Z,6.90
2022-10-04T06:49:07.502Z,7.20
2022-10-04T06:52:09.930Z,7.40
2022-10-04T06:54:55.502Z,7.50
2022-10-04T06:57:45.744Z,7.70
2022-10-04T07:00:19.077Z,7.70
2022-10-04T07:02:54.464Z,7.70
2022-10-04T07:05:31.382Z,7.90
2022-10-04T07:08:10.965Z,8.10
2022-10-04T07:10:53.474Z,8.40
2022-10-04T07:13:33.277Z,8.60
2022-10-04T07:16:06.927Z,8.60
2022-10-04T07:18:41.950Z,8.70
2022-10-04T07:21:15.911Z,8.90
2022-10-04T07:23:54.687Z,9.00
2022-10-04T07:26:30.779Z,9.40
2022-10-04T07:29:21.972Z,9.80
2022-10-04T07:31:55.258Z,10.10
2022-10-04T07:34:27.724Z,10.50
2022-10-04T07:36:59.003Z,10.70
2022-10-04T07:39:34.698Z,10.80
2022-10-04T07:42:17.331Z,10.50
2022-10-04T07:44:55.557Z,10.40
2022-10-04T07:47:27.840Z,10.50
2022-10-04T07:49:59.590Z,10.40
2022-10-04T07:52:55.818Z,10.50
2022-10-04T07:55:33.350Z,10.90
2022-10-04T07:58:20.435Z,11.10
2022-10-04T08:00:55.564Z,11.40
2022-10-04T08:03:46.883Z,11.70
2022-10-04T08:06:20.175Z,11.80
2022-10-04T08:09:12.826Z,11.80
2022-10-04T08:11:50.128Z,12.00
2022-10-04T08:14:36.415Z,11.90
2022-10-04T08:17:19.764Z,11.90
2022-10-04T08:19:57.977Z,11.70
2022-10-04T08:22:44.073Z,11.90
2022-10-04T08:25:26.525Z,12.10
2022-10-04T08:28:21.926Z,12.40
2022-10-04T08:31:10.964Z,13.00
2022-10-04T08:33:53.755Z,13.30
2022-10-04T08:36:34.462Z,13.80
2022-10-04T08:39:02.494Z,14.60
2022-10-04T08:42:04.767Z,15.00
2022-10-04T08:45:08.971Z,15.00
2022-10-04T08:48:24.819Z,15.40
2022-10-04T08:51:34.434Z,16.50
2022-10-04T08:54:42.155Z,16.30
2022-10-04T08:57:51.762Z,16.60
2022-10-04T09:00:34.298Z,16.30
2022-10-04T09:03:50.347Z,15.70
2022-10-04T09:06:33.799Z,16.00
2022-10-04T09:09:40.722Z,16.40
2022-10-04T09:12:47.893Z,17.40
2022-10-04T09:15:43.624Z,17.60
2022-10-04T09:18:30.421Z,17.70
2022-10-04T09:21:06.629Z,18.10
2022-10-04T09:24:25.106Z,17.90
2022-10-04T09:27:01.627Z,17.60
2022-10-04T09:29:55.036Z,17.40
2022-10-04T09:32:58.951Z,17.10
2022-10-04T09:35:59.891Z,16.20
2022-10-04T09:39:11.765Z,15.80
2022-10-04T09:42:08.593Z,15.60
2022-10-04T09:45:05.907Z,16.60
2022-10-04T09:47:51.506Z,16.80
2022-10-04T09:50:58.951Z,17.10
2022-10-04T09:53:53.023Z,17.30
2022-10-04T09:57:01.228Z,17.20
2022-10-04T09:59:54.564Z,17.00
2022-10-04T10:03:05.489Z,16.80
2022-10-04T10:05:58.799Z,17.10
2022-10-04T10:08:32.350Z,17.20
2022-10-04T10:11:25.628Z,17.10
2022-10-04T10:14:23.093Z,17.50
2022-10-04T10:17:04.001Z,18.30
2022-10-04T10:20:00.179Z,18.00
2022-10-04T10:22:54.904Z,17.20
2022-10-04T10:25:31.946Z,17.30
2022-10-04T10:28:24.084Z,17.90
2022-10-04T10:31:15.196Z,17.70
2022-10-04T10:34:23.667Z,17.70
2022-10-04T10:37:09.976Z,17.10
2022-10-04T10:40:13.765Z,17.10
2022-10-04T10:43:20.215Z,16.50
2022-10-04T10:46:11.053Z,17.30
2022-10-04T10:49:09.799Z,17.70
2022-10-04T10:52:06.226Z,17.30
2022-10-04T10:55:19.491Z,17.60
2022-10-04T10:58:18.244Z,18.40
2022-10-04T11:01:01.034Z,18.20
2022-10-04T11:04:04.768Z,18.30
2022-10-04T11:07:22.027Z,18.40
2022-10-04T11:10:19.453Z,18.00
2022-10-04T11:13:04.882Z,18.20
2022-10-04T11:15:42.412Z,18.40
2022-10-04T11:18:45.220Z,18.50
2022-10-04T11:22:07.710Z,18.60
2022-10-04T11:25:06.926Z,18.50
2022-10-04T11:27:49.507Z,18.30
2022-10-04T11:30:24.953Z,18.80
2022-10-04T11:33:27.218Z,18.80
2022-10-04T11:36:27.118Z,17.80
2022-10-04T11:39:15.865Z,17.60
2022-10-04T11:41:54.351Z,17.50
2022-10-04T11:44:46.889Z,17.30
2022-10-04T11:47:28.810Z,17.20
2022-10-04T11:50:29.551Z,17.00
2022-10-04T11:53:36.070Z,17.30
2022-10-04T11:56:21.028Z,17.00
2022-10-04T11:59:10.679Z,17.40
2022-10-04T12:02:02.868Z,17.60
2022-10-04T12:04:53.779Z,17.60
2022-10-04T12:07:35.927Z,17.60
2022-10-04T12:10:20.712Z,17.30
2022-10-04T12:13:22.203Z,17.40
2022-10-04T12:16:05.978Z,17.60
2022-10-04T12:19:13.977Z,17.40
2022-10-04T12:22:08.553Z,17.50
2022-10-04T12:24:58.822Z,17.40
2022-10-04T12:28:08.050Z,17.70
2022-10-04T12:30:56.135Z,17.70
2022-10-04T12:33:34.493Z,17.10
2022-10-04T12:36:20.623Z,17.20
2022-10-04T12:39:05.922Z,16.90
2022-10-04T12:41:51.861Z,17.30
2022-10-04T12:44:40.975Z,17.20
2022-10-04T12:47:55.919Z,17.10
2022-10-04T12:50:36.860Z,17.20
2022-10-04T12:53:20.246Z,17.10
2022-10-04T12:56:05.570Z,16.80
2022-10-04T12:58:55.976Z,16.50
2022-10-04T13:01:33.290Z,16.40
2022-10-04T13:04:17.270Z,16.40
2022-10-04T13:07:01.853Z,16.40
2022-10-04T13:09:55.150Z,16.60
2022-10-04T13:12:47.163Z,16.80
2022-10-04T13:15:28.815Z,16.40
2022-10-04T13:18:12.017Z,16.40
2022-10-04T13:20:48.879Z,16.20
2022-10-04T13:23:28.882Z,16.20
2022-10-04T13:26:10.244Z,16.20
2022-10-04T13:28:47.246Z,16.60
2022-10-04T13:31:24.852Z,16.60
2022-10-04T13:34:01.257Z,16.60
2022-10-04T13:36:48.831Z,16.50
2022-10-04T13:39:29.421Z,16.60
2022-10-04T13:42:13.513Z,16.60
2022-10-04T13:45:00.940Z,16.40
2022-10-04T13:47:54.067Z,16.20
2022-10-04T13:50:48.542Z,16.20
2022-10-04T13:53:45.537Z,16.20
2022-10-04T13:56:40.432Z,16.10
2022-10-04T13:59:22.630Z,16.00
2022-10-04T14:02:29.603Z,16.10
2022-10-04T14:05:40.381Z,16.20
2022-10-04T14:08:44.545Z,16.10
2022-10-04T14:12:03.870Z,16.00
2022-10-04T14:15:04.045Z,15.90
2022-10-04T14:18:07.892Z,15.80
2022-10-04T14:21:15.265Z,15.80
2022-10-04T14:24:12.690Z,15.50
2022-10-04T14:27:14.391Z,15.50
2022-10-04T14:30:18.913Z,15.50
2022-10-04T14:33:26.440Z,15.40
2022-10-04T14:36:25.523Z,15.40
2022-10-04T14:39:10.546Z,15.30
2022-10-04T14:42:06.965Z,15.10
2022-10-04T14:45:04.265Z,15.00
2022-10-04T14:47:49.639Z,15.10
2022-10-04T14:50:26.888Z,15.10
2022-10-04T14:53:09.887Z,15.10
2022-10-04T14:56:06.803Z,15.30
2022-10-04T14:58:43.053Z,15.40
2022-10-04T15:01:21.475Z,15.50
2022-10-04T15:04:19.727Z,15.60
2022-10-04T15:06:50.642Z,15.60
2022-10-04T15:09:51.207Z,15.50
2022-10-04T15:16:12.885Z,15.50
2022-10-04T15:18:53.467Z,15.30
2022-10-04T15:21:51.538Z,15.20
2022-10-04T15:24:27.460Z,15.10
2022-10-04T15:27:23.232Z,14.90
2022-10-04T15:30:03.416Z,14.80
2022-10-04T15:32:39.000Z,14.60
2022-10-04T15:35:28.288Z,14.50
2022-10-04T15:38:04.518Z,14.40
2022-10-04T15:40:40.802Z,14.20
2022-10-04T15:43:25.819Z,14.20
2022-10-04T15:46:45.314Z,14.10
2022-10-04T15:49:48.982Z,14.10
2022-10-04T15:52:57.999Z,14.10
2022-10-04T15:55:52.090Z,14.00
2022-10-04T15:58:53.156Z,13.90
2022-10-04T16:01:45.814Z,13.90
2022-10-04T16:04:40.763Z,13.80
2022-10-04T16:07:42.536Z,13.80
2022-10-04T16:10:20.723Z,13.70
2022-10-04T16:13:20.466Z,13.70
2022-10-04T16:16:27.688Z,13.60
2022-10-04T16:19:11.788Z,13.60
2022-10-04T16:21:53.032Z,13.50
2022-10-04T16:24:45.616Z,13.40
2022-10-04T16:27:49.472Z,13.30
2022-10-04T16:30:29.149Z,13.20
2022-10-04T16:33:29.016Z,13.10
2022-10-04T16:36:10.516Z,13.00
2022-10-04T16:39:06.676Z,12.80
2022-10-04T16:41:44.563Z,12.70
2022-10-04T16:44:33.747Z,12.60
2022-10-04T16:47:14.927Z,12.40
2022-10-04T16:49:54.953Z,12.30
2022-10-04T16:52:48.830Z,12.10
2022-10-04T16:55:47.508Z,12.00
2022-10-04T16:59:00.111Z,11.90
2022-10-04T17:02:06.709Z,11.70
2022-10-04T17:05:20.766Z,11.60
2022-10-04T17:08:34.357Z,11.40
2022-10-04T17:11:38.799Z,11.40
2022-10-04T17:14:32.748Z,11.30
2022-10-04T17:17:14.266Z,11.20
2022-10-04T17:19:52.328Z,11.20
2022-10-04T17:22:33.752Z,11.10
2022-10-04T17:25:17.598Z,11.00
2022-10-04T17:27:50.678Z,11.00
2022-10-04T17:30:23.179Z,10.90
2022-10-04T17:33:16.641Z,10.80
2022-10-04T17:36:09.192Z,10.70
2022-10-04T17:38:49.007Z,10.70
2022-10-04T17:41:32.756Z,10.60
2022-10-04T17:44:28.009Z,10.50
2022-10-04T17:47:01.023Z,10.30
2022-10-04T17:49:56.014Z,10.30
2022-10-04T17:52:48.137Z,10.20
2022-10-04T17:55:28.663Z,10.10
2022-10-04T17:58:06.067Z,10.00
2022-10-04T18:00:53.029Z,10.00
2022-10-04T18:03:24.252Z,10.00
2022-10-04T18:06:00.209Z,9.90
2022-10-04T18:08:43.148Z,9.80
2022-10-04T18:11:24.880Z,9.80
2022-10-04T18:14:02.573Z,9.70
2022-10-04T18:16:32.675Z,9.60
2022-10-04T18:19:36.036Z,9.60
2022-10-04T18:22:18.161Z,9.50
2022-10-04T18:24:48.416Z,9.50
2022-10-04T18:27:21.637Z,9.30
2022-10-04T18:30:15.670Z,9.30
2022-10-04T18:32:49.236Z,9.30
2022-10-04T18:35:27.401Z,9.20
2022-10-04T18:37:59.415Z,9.10
2022-10-04T18:40:29.049Z,9.10
2022-10-04T18:43:02.083Z,9.00
2022-10-04T18:45:35.687Z,8.90
2022-10-04T18:48:18.345Z,8.90
2022-10-04T18:50:48.354Z,8.80
2022-10-04T18:53:43.830Z,8.70
2022-10-04T18:56:15.684Z,8.70
2022-10-04T18:59:21.130Z,8.60
2022-10-04T19:02:03.067Z,8.60
2022-10-04T19:04:46.722Z,8.50
2022-10-04T19:07:16.941Z,8.50
2022-10-04T19:10:07.247Z,8.50
2022-10-04T19:12:47.193Z,8.40
2022-10-04T19:15:30.524Z,8.40
2022-10-04T19:18:11.503Z,8.40
2022-10-04T19:20:43.020Z,8.30
2022-10-04T19:23:25.047Z,8.30
2022-10-04T19:26:29.902Z,8.30
2022-10-04T19:28:49.583Z,8.20
2022-10-04T19:31:24.419Z,8.20
2022-10-04T19:33:57.236Z,8.20
2022-10-04T19:36:47.202Z,8.10
2022-10-04T19:39:37.107Z,8.10
2022-10-04T19:42:12.567Z,8.00
2022-10-04T19:44:52.820Z,8.00
2022-10-04T19:47:40.038Z,7.90
2022-10-04T19:50:21.266Z,7.90
2022-10-04T19:52:53.687Z,7.90
2022-10-04T19:55:26.926Z,7.80
2022-10-04T19:58:08.763Z,7.90
2022-10-04T20:00:37.613Z,7.90
2022-10-04T20:03:12.788Z,7.80
2022-10-04T20:05:47.150Z,7.80
2022-10-04T20:08:16.914Z,7.70
2022-10-04T20:10:45.311Z,7.70
2022-10-04T20:13:24.180Z,7.60
2022-10-04T20:15:59.678Z,7.70
2022-10-04T20:19:05.918Z,7.70
2022-10-04T20:21:38.493Z,7.60
2022-10-04T20:24:17.242Z,7.60
2022-10-04T20:27:06.703Z,7.60
2022-10-04T20:30:05.197Z,7.60
2022-10-04T20:32:56.114Z,7.50
2022-10-04T20:36:01.632Z,7.40
2022-10-04T20:39:00.820Z,7.40
2022-10-04T20:42:20.673Z,7.30
2022-10-04T20:45:01.791Z,7.20
2022-10-04T20:47:49.590Z,7.20
2022-10-04T20:50:32.340Z,7.20
2022-10-04T20:53:04.351Z,7.20
2022-10-04T20:55:38.344Z,7.10
2022-10-04T20:58:25.407Z,7.10
2022-10-04T21:00:57.071Z,7.10
2022-10-04T21:03:28.790Z,7.10
2022-10-04T21:06:07.460Z,7.00
2022-10-04T21:08:36.640Z,7.00
2022-10-04T21:11:19.795Z,7.00
2022-10-04T21:13:55.878Z,7.00
2022-10-04T21:16:43.349Z,6.90
2022-10-04T21:19:46.851Z,6.90
2022-10-04T21:22:42.493Z,6.90
2022-10-04T21:25:35.356Z,6.80
2022-10-04T21:28:36.330Z,6.70
2022-10-04T21:31:05.209Z,6.70
2022-10-04T21:33:37.082Z,6.70
2022-10-04T21:36:06.870Z,6.60
2022-10-04T21:38:35.143Z,6.60
2022-10-04T21:41:03.608Z,6.50
2022-10-04T21:43:31.956Z,6.50
2022-10-04T21:46:02.056Z,6.50
2022-10-04T21:48:34.952Z,6.50
2022-10-04T21:51:06.613Z,6.40
2022-10-04T21:53:36.454Z,6.40
2022-10-04T21:56:04.501Z,6.40
2022-10-04T21:58:32.533Z,6.30
2022-10-04T22:01:02.019Z,6.30
2022-10-04T22:03:30.059Z,6.30
2022-10-04T22:05:57.995Z,6.30
2022-10-04T22:08:29.847Z,6.20
2022-10-04T22:10:58.242Z,6.20
2022-10-04T22:13:26.762Z,6.30
2022-10-04T22:15:55.193Z,6.20
2022-10-04T22:18:28.047Z,6.20
2022-10-04T22:20:56.069Z,6.20
2022-10-04T22:23:26.970Z,6.20
2022-10-04T22:25:56.211Z,6.20
2022-10-04T22:28:25.684Z,6.20
2022-10-04T22:30:58.379Z,6.20
2022-10-04T22:33:34.890Z,6.10
2022-10-04T22:36:16.132Z,6.10
2022-10-04T22:38:50.932Z,6.10
2022-10-04T22:41:20.294Z,6.10
2022-10-04T22:43:50.280Z,6.10
2022-10-04T22:46:21.228Z,6.00
2022-10-04T22:48:53.012Z,6.00
2022-10-04T22:51:22.351Z,5.90
2022-10-04T22:53:50.360Z,5.90
2022-10-04T22:56:18.412Z,6.00
2022-10-04T22:58:46.476Z,5.90
2022-10-04T23:01:16.301Z,5.90
2022-10-04T23:03:47.298Z,5.80
2022-10-04T23:06:17.630Z,5.80
2022-10-04T23:08:45.986Z,5.80
2022-10-04T23:11:14.018Z,5.80
2022-10-04T23:13:42.119Z,5.70
2022-10-04T23:16:18.726Z,5.70
2022-10-04T23:18:46.806Z,5.70
2022-10-04T23:21:23.317Z,5.70
2022-10-04T23:23:54.238Z,5.70
2022-10-04T23:26:25.694Z,5.70
2022-10-04T23:28:53.783Z,5.60
2022-10-04T23:31:26.979Z,5.60
2022-10-04T23:33:57.670Z,5.60
2022-10-04T23:36:27.416Z,5.60
2022-10-04T23:39:00.089Z,5.60
2022-10-04T23:41:32.551Z,5.60
2022-10-04T23:44:00.605Z,5.60
2022-10-04T23:46:31.911Z,5.60
2022-10-04T23:49:03.887Z,5.60
2022-10-04T23:51:33.225Z,5.60
2022-10-04T23:54:01.228Z,5.60
2022-10-04T23:56:36.913Z,5.60
2022-10-04T23:59:05.747Z,5.70
